createdAt,value
2023-03-04T00:02:45.154Z,212310.00
2023-03-04T00:08:47.562Z,212276.00
2023-03-04T00:14:49.698Z,212262.00
2023-03-04T00:20:52.002Z,212310.00
2023-03-04T00:26:54.197Z,212276.00
2023-03-04T00:32:56.460Z,212310.00
2023-03-04T00:38:59.146Z,212290.00
2023-03-04T00:45:01.295Z,212317.00
2023-03-04T00:51:03.503Z,212337.00
2023-03-04T00:57:05.630Z,212317.00
2023-03-04T01:03:07.856Z,212329.00
2023-03-04T01:09:10.284Z,212351.00
2023-03-04T01:15:13.925Z,212357.00
2023-03-04T01:21:16.150Z,212262.00
2023-03-04T01:27:18.296Z,212182.00
2023-03-04T01:33:20.450Z,212148.00
2023-03-04T01:39:22.634Z,212162.00
2023-03-04T01:45:26.738Z,212182.00
2023-03-04T01:51:29.037Z,212154.00
2023-03-04T01:57:35.857Z,212148.00
2023-03-04T02:03:39.130Z,212140.00
2023-03-04T02:09:41.507Z,212154.00
2023-03-04T02:15:45.471Z,212203.00
2023-03-04T02:21:47.591Z,212215.00
2023-03-04T02:27:49.754Z,212256.00
2023-03-04T02:33:54.268Z,212276.00
2023-03-04T02:39:56.648Z,212316.00
2023-03-04T02:45:58.950Z,212331.00
2023-03-04T02:52:15.166Z,212337.00
2023-03-04T02:58:17.658Z,212365.00
2023-03-04T03:04:21.151Z,212379.00
2023-03-04T03:10:25.108Z,212379.00
2023-03-04T03:16:27.744Z,212407.00
2023-03-04T03:22:30.399Z,212421.00
2023-03-04T03:28:32.844Z,212385.00
2023-03-04T03:34:35.775Z,212399.00
2023-03-04T03:40:38.180Z,212391.00
2023-03-04T03:46:40.664Z,212357.00
2023-03-04T03:52:42.848Z,212337.00
2023-03-04T03:58:45.213Z,212284.00
2023-03-04T04:04:47.611Z,212316.00
2023-03-04T04:10:49.707Z,212337.00
2023-03-04T04:16:51.892Z,212351.00
2023-03-04T04:22:54.133Z,212317.00
2023-03-04T04:28:56.275Z,212357.00
2023-03-04T04:34:58.401Z,212357.00
2023-03-04T04:41:01.055Z,212385.00
2023-03-04T04:47:03.107Z,212379.00
2023-03-04T04:53:05.356Z,212371.00
2023-03-04T04:59:08.865Z,212357.00
2023-03-04T05:05:11.156Z,212268.00
2023-03-04T05:11:13.318Z,212276.00
2023-03-04T05:17:15.360Z,212262.00
2023-03-04T05:23:17.733Z,212215.00
2023-03-04T05:29:20.259Z,212242.00
2023-03-04T05:35:22.382Z,212242.00
2023-03-04T05:41:24.656Z,212276.00
2023-03-04T05:47:26.910Z,212284.00
2023-03-04T05:53:29.585Z,212268.00
2023-03-04T05:59:31.854Z,212296.00
2023-03-04T06:05:34.295Z,212329.00
2023-03-04T06:11:36.586Z,212421.00
2023-03-04T06:17:42.157Z,212638.00
2023-03-04T06:23:45.510Z,212975.00
2023-03-04T06:29:48.044Z,214488.00
2023-03-04T06:35:54.625Z,214058.00
2023-03-04T06:41:56.949Z,214974.00
2023-03-04T06:47:59.400Z,216628.00
2023-03-04T06:54:01.753Z,217447.00
2023-03-04T07:00:04.663Z,216070.00
2023-03-04T07:06:07.460Z,215560.00
2023-03-04T07:12:09.927Z,215489.00
2023-03-04T07:18:12.238Z,216386.00
2023-03-04T07:24:14.754Z,216326.00
2023-03-04T07:30:17.447Z,216169.00
2023-03-04T07:36:20.446Z,216964.00
2023-03-04T07:42:23.330Z,216268.00
2023-03-04T07:48:33.524Z,216125.00
2023-03-04T07:54:36.225Z,217419.00
2023-03-04T08:00:38.242Z,219624.00
2023-03-04T08:06:42.075Z,221148.00
2023-03-04T08:12:44.178Z,221253.00
2023-03-04T08:18:48.718Z,219414.00
2023-03-04T08:24:50.786Z,217524.00
2023-03-04T08:30:54.863Z,216563.00
2023-03-04T08:36:57.164Z,216001.00
2023-03-04T08:42:59.438Z,215281.00
2023-03-04T08:49:01.644Z,214703.00
2023-03-04T08:55:04.218Z,214238.00
2023-03-04T09:01:09.423Z,214033.00
2023-03-04T09:07:11.800Z,214078.00
2023-03-04T09:13:17.884Z,214033.00
2023-03-04T09:19:20.521Z,214078.00
2023-03-04T09:25:22.984Z,214058.00
2023-03-04T09:31:26.611Z,213997.00
2023-03-04T09:37:28.755Z,214390.00
2023-03-04T09:43:32.825Z,214404.00
2023-03-04T09:49:39.111Z,214545.00
2023-03-04T09:55:44.407Z,214814.00
2023-03-04T10:01:55.136Z,215656.00
2023-03-04T10:08:01.071Z,217036.00
2023-03-04T10:14:38.761Z,217014.00
2023-03-04T10:20:59.892Z,216661.00
2023-03-04T10:27:07.480Z,217008.00
2023-03-04T10:33:31.439Z,216577.00
2023-03-04T10:39:40.045Z,216326.00
2023-03-04T10:45:42.687Z,216628.00
2023-03-04T10:51:51.060Z,217129.00
2023-03-04T10:57:58.029Z,217332.00
2023-03-04T11:04:00.322Z,217475.00
2023-03-04T11:10:20.220Z,218182.00
2023-03-04T11:16:31.436Z,219083.00
2023-03-04T11:22:33.930Z,219861.00
2023-03-04T11:28:47.713Z,220811.00
2023-03-04T11:35:08.673Z,220900.00
2023-03-04T11:41:17.197Z,221492.00
2023-03-04T11:47:46.651Z,221046.00
2023-03-04T11:54:36.190Z,220675.00
2023-03-04T12:00:44.250Z,220718.00
2023-03-04T12:07:09.366Z,221177.00
2023-03-04T12:13:36.595Z,220982.00
2023-03-04T12:20:09.216Z,219602.00
2023-03-04T12:26:43.843Z,219652.00
2023-03-04T12:32:57.702Z,219040.00
2023-03-04T12:39:08.562Z,218102.00
2023-03-04T12:45:19.626Z,217538.00
2023-03-04T12:51:35.360Z,218660.00
2023-03-04T12:57:38.565Z,217825.00
2023-03-04T13:03:45.400Z,218206.00
2023-03-04T13:09:57.739Z,218023.00
2023-03-04T13:16:27.325Z,217560.00
2023-03-04T13:22:41.522Z,217504.00
2023-03-04T13:28:43.910Z,216882.00
2023-03-04T13:34:54.842Z,216860.00
2023-03-04T13:41:31.546Z,216719.00
2023-03-04T13:47:45.659Z,217000.00
2023-03-04T13:53:56.581Z,217249.00
2023-03-04T13:59:59.014Z,216436.00
2023-03-04T14:06:10.355Z,216345.00
2023-03-04T14:12:19.774Z,216191.00
2023-03-04T14:18:25.164Z,216043.00
2023-03-04T14:24:27.518Z,215909.00
2023-03-04T14:30:42.103Z,215700.00
2023-03-04T14:36:45.793Z,215532.00
2023-03-04T14:42:49.643Z,215427.00
2023-03-04T14:48:54.049Z,215369.00
2023-03-04T14:55:15.216Z,215295.00
2023-03-04T15:01:21.776Z,215239.00
2023-03-04T15:07:36.263Z,215132.00
2023-03-04T15:13:50.349Z,215090.00
2023-03-04T15:20:17.553Z,215016.00
2023-03-04T15:26:19.846Z,214940.00
2023-03-04T15:32:26.140Z,214883.00
2023-03-04T15:38:29.312Z,214814.00
2023-03-04T15:44:32.228Z,214753.00
2023-03-04T15:50:36.333Z,214681.00
2023-03-04T15:56:39.617Z,214648.00
2023-03-04T16:02:42.806Z,214584.00
2023-03-04T16:08:46.157Z,214559.00
2023-03-04T16:14:50.190Z,214529.00
2023-03-04T16:20:52.579Z,214515.00
2023-03-04T16:26:54.924Z,214454.00
2023-03-04T16:32:57.531Z,214404.00
2023-03-04T16:39:03.469Z,214390.00
2023-03-04T16:45:06.564Z,214355.00
2023-03-04T16:51:17.317Z,214296.00
2023-03-04T16:57:20.170Z,214280.00
2023-03-04T17:03:22.380Z,214260.00
2023-03-04T17:09:24.493Z,214238.00
2023-03-04T17:15:26.791Z,214177.00
2023-03-04T17:21:28.944Z,214177.00
2023-03-04T17:27:31.116Z,214163.00
2023-03-04T17:33:33.443Z,214119.00
2023-03-04T17:39:35.631Z,214072.00
2023-03-04T17:45:42.180Z,214025.00
2023-03-04T17:51:44.780Z,213956.00
2023-03-04T17:57:47.234Z,213908.00
2023-03-04T18:03:49.499Z,213852.00
2023-03-04T18:09:51.891Z,213830.00
2023-03-04T18:15:54.239Z,213797.00
2023-03-04T18:21:56.891Z,213734.00
2023-03-04T18:27:59.451Z,213673.00
2023-03-04T18:34:02.286Z,213617.00
2023-03-04T18:40:05.175Z,213625.00
2023-03-04T18:46:09.236Z,213595.00
2023-03-04T18:52:11.796Z,213589.00
2023-03-04T18:58:14.178Z,213517.00
2023-03-04T19:04:18.396Z,213461.00
2023-03-04T19:10:21.448Z,213447.00
2023-03-04T19:16:24.186Z,213390.00
2023-03-04T19:22:26.183Z,213308.00
2023-03-04T19:28:28.209Z,213254.00
2023-03-04T19:34:30.221Z,213262.00
2023-03-04T19:40:34.657Z,213240.00
2023-03-04T19:46:36.853Z,213254.00
2023-03-04T19:52:40.431Z,213292.00
2023-03-04T19:58:42.830Z,213308.00
2023-03-04T20:04:45.056Z,213278.00
2023-03-04T20:10:47.273Z,213198.00
2023-03-04T20:16:49.605Z,213150.00
2023-03-04T20:22:51.924Z,213117.00
2023-03-04T20:28:54.492Z,213097.00
2023-03-04T20:34:58.386Z,213117.00
2023-03-04T20:41:00.630Z,213137.00
2023-03-04T20:47:03.749Z,213184.00
2023-03-04T20:53:05.984Z,213184.00
2023-03-04T20:59:10.616Z,213234.00
2023-03-04T21:05:13.348Z,213254.00
2023-03-04T21:11:17.067Z,213150.00
2023-03-04T21:17:19.288Z,213011.00
2023-03-04T21:23:22.000Z,212869.00
2023-03-04T21:29:25.791Z,212752.00
2023-03-04T21:35:27.999Z,212638.00
2023-03-04T21:41:31.325Z,212596.00
2023-03-04T21:47:34.958Z,212535.00
2023-03-04T21:53:37.619Z,212468.00
2023-03-04T21:59:39.784Z,212441.00
2023-03-04T22:05:45.396Z,212385.00
2023-03-04T22:11:47.608Z,212331.00
2023-03-04T22:17:50.019Z,212276.00
2023-03-04T22:23:52.282Z,212276.00
2023-03-04T22:29:56.026Z,212256.00
2023-03-04T22:35:58.104Z,212284.00
2023-03-04T22:42:00.320Z,212284.00
2023-03-04T22:48:02.784Z,212242.00
2023-03-04T22:54:05.146Z,212174.00
2023-03-04T23:00:15.859Z,212154.00
2023-03-04T23:06:20.950Z,212086.00
2023-03-04T23:12:23.536Z,212066.00
2023-03-04T23:18:25.776Z,212011.00
2023-03-04T23:24:28.133Z,211983.00
2023-03-04T23:30:30.550Z,216040.00
2023-03-04T23:36:35.587Z,216001.00
2023-03-04T23:42:39.224Z,215971.00
2023-03-04T23:48:46.621Z,215903.00
2023-03-04T23:54:48.918Z,215870.00
